createdAt,value
2022-08-18T00:01:55.026Z,2.85
2022-08-18T00:04:34.858Z,2.83
2022-08-18T00:07:02.232Z,3.00
2022-08-18T00:09:32.265Z,3.17
2022-08-18T00:12:14.095Z,2.80
2022-08-18T00:14:40.713Z,3.20
2022-08-18T00:17:07.365Z,2.78
2022-08-18T00:19:46.122Z,3.00
2022-08-18T00:22:18.513Z,2.92
2022-08-18T00:24:48.623Z,2.90
2022-08-18T00:27:22.915Z,2.80
2022-08-18T00:29:51.362Z,3.10
2022-08-18T00:32:21.139Z,2.55
2022-08-18T00:34:47.844Z,2.88
2022-08-18T00:37:14.554Z,2.90
2022-08-18T00:39:46.659Z,3.05
2022-08-18T00:42:33.878Z,3.00
2022-08-18T00:45:04.352Z,2.80
2022-08-18T00:47:41.900Z,3.10
2022-08-18T00:50:18.512Z,2.75
2022-08-18T00:52:52.381Z,2.83
2022-08-18T00:55:21.180Z,2.97
2022-08-18T00:57:52.172Z,3.00
2022-08-18T01:00:19.102Z,3.08
2022-08-18T01:02:50.016Z,2.70
2022-08-18T01:05:24.443Z,2.90
2022-08-18T01:07:51.565Z,2.90
2022-08-18T01:10:22.435Z,3.28
2022-08-18T01:12:58.937Z,2.72
2022-08-18T01:15:30.405Z,2.80
2022-08-18T01:18:23.537Z,2.80
2022-08-18T01:21:16.681Z,2.95
2022-08-18T01:23:44.821Z,3.28
2022-08-18T01:26:12.852Z,3.15
2022-08-18T01:28:42.601Z,3.00
2022-08-18T01:31:11.001Z,3.10
2022-08-18T01:33:42.197Z,3.03
2022-08-18T01:36:18.332Z,3.03
2022-08-18T01:38:48.268Z,2.53
2022-08-18T01:41:26.704Z,3.20
2022-08-18T01:43:55.079Z,3.47
2022-08-18T01:46:23.194Z,3.33
2022-08-18T01:48:50.685Z,3.10
2022-08-18T01:51:19.774Z,3.13
2022-08-18T01:53:50.493Z,3.40
2022-08-18T01:56:17.802Z,2.95
2022-08-18T01:58:44.639Z,3.15
2022-08-18T02:01:13.218Z,3.17
2022-08-18T02:03:45.099Z,3.13
2022-08-18T02:06:14.682Z,3.28
2022-08-18T02:08:43.539Z,2.85
2022-08-18T02:11:10.779Z,2.95
2022-08-18T02:13:37.728Z,3.78
2022-08-18T02:16:04.869Z,3.13
2022-08-18T02:18:47.308Z,2.83
2022-08-18T02:21:19.486Z,2.90
2022-08-18T02:23:52.956Z,2.95
2022-08-18T02:26:21.306Z,2.90
2022-08-18T02:28:48.086Z,3.10
2022-08-18T02:31:21.170Z,3.13
2022-08-18T02:33:51.731Z,3.08
2022-08-18T02:36:20.251Z,3.20
2022-08-18T02:38:54.661Z,3.35
2022-08-18T02:41:29.900Z,3.00
2022-08-18T02:44:03.065Z,3.30
2022-08-18T02:46:31.009Z,3.20
2022-08-18T02:49:00.163Z,3.15
2022-08-18T02:51:26.800Z,2.88
2022-08-18T02:53:54.512Z,3.10
2022-08-18T02:56:40.832Z,3.05
2022-08-18T02:59:17.698Z,3.03
2022-08-18T03:01:47.736Z,2.97
2022-08-18T03:04:21.122Z,3.20
2022-08-18T03:06:49.577Z,3.25
2022-08-18T03:09:18.670Z,3.20
2022-08-18T03:11:45.963Z,3.03
2022-08-18T03:14:13.067Z,2.88
2022-08-18T03:16:53.615Z,3.22
2022-08-18T03:19:22.529Z,2.75
2022-08-18T03:21:49.095Z,3.33
2022-08-18T03:24:19.673Z,2.83
2022-08-18T03:26:50.353Z,3.05
2022-08-18T03:29:16.999Z,3.00
2022-08-18T03:31:45.300Z,3.35
2022-08-18T03:34:12.898Z,3.08
2022-08-18T03:36:39.884Z,2.95
2022-08-18T03:39:10.177Z,2.95
2022-08-18T03:41:59.131Z,3.10
2022-08-18T03:44:31.963Z,2.80
2022-08-18T03:46:59.005Z,2.88
2022-08-18T03:49:26.858Z,2.50
2022-08-18T03:51:53.522Z,2.78
2022-08-18T03:54:20.116Z,2.95
2022-08-18T03:56:47.963Z,3.33
2022-08-18T03:59:18.086Z,3.00
2022-08-18T04:04:15.454Z,3.00
2022-08-18T04:06:55.419Z,3.25
2022-08-18T04:09:24.787Z,2.92
2022-08-18T04:11:52.263Z,2.83
2022-08-18T04:14:24.812Z,2.80
2022-08-18T04:16:52.027Z,3.08
2022-08-18T04:19:22.693Z,2.95
2022-08-18T04:21:53.994Z,3.08
2022-08-18T04:24:21.070Z,3.20
2022-08-18T04:26:49.071Z,3.00
2022-08-18T04:29:18.224Z,2.67
2022-08-18T04:31:45.707Z,3.20
2022-08-18T04:34:13.786Z,2.72
2022-08-18T04:36:41.535Z,3.50
2022-08-18T04:39:10.880Z,2.85
2022-08-18T04:41:39.112Z,3.30
2022-08-18T04:44:08.824Z,2.97
2022-08-18T04:46:40.036Z,3.40
2022-08-18T04:49:09.365Z,3.10
2022-08-18T04:52:37.139Z,2.93
2022-08-18T04:54:26.208Z,2.95
2022-08-18T04:56:53.240Z,3.17
2022-08-18T04:59:20.428Z,3.72
2022-08-18T05:01:47.644Z,3.20
2022-08-18T05:04:16.921Z,3.25
2022-08-18T05:06:44.724Z,3.45
2022-08-18T05:09:16.419Z,3.42
2022-08-18T05:11:50.881Z,3.40
2022-08-18T05:14:17.906Z,3.30
2022-08-18T05:16:48.950Z,3.33
2022-08-18T05:19:23.119Z,3.22
2022-08-18T05:21:51.589Z,3.70
2022-08-18T05:24:21.435Z,4.50
2022-08-18T05:26:49.068Z,4.72
2022-08-18T05:29:18.653Z,4.32
2022-08-18T05:31:48.333Z,4.47
2022-08-18T05:34:17.081Z,4.75
2022-08-18T05:36:50.340Z,4.43
2022-08-18T05:39:19.541Z,4.53
2022-08-18T05:42:03.549Z,4.60
2022-08-18T05:44:34.583Z,4.30
2022-08-18T05:47:06.542Z,4.10
2022-08-18T05:49:36.234Z,4.32
2022-08-18T05:52:15.723Z,4.57
2022-08-18T05:55:07.087Z,5.05
2022-08-18T05:57:42.586Z,4.28
2022-08-18T06:00:11.607Z,4.97
2022-08-18T06:02:48.023Z,4.38
2022-08-18T06:05:31.593Z,4.70
2022-08-18T06:08:09.722Z,4.82
2022-08-18T06:10:37.563Z,4.45
2022-08-18T06:13:08.291Z,4.00
2022-08-18T06:16:04.435Z,4.20
2022-08-18T06:19:11.208Z,3.85
2022-08-18T06:22:08.366Z,4.18
2022-08-18T06:24:43.336Z,3.83
2022-08-18T06:27:19.246Z,4.00
2022-08-18T06:30:04.545Z,3.92
2022-08-18T06:32:30.982Z,3.53
2022-08-18T06:35:35.568Z,3.65
2022-08-18T06:38:38.570Z,3.78
2022-08-18T06:41:42.378Z,3.40
2022-08-18T06:44:21.066Z,3.50
2022-08-18T06:47:15.485Z,3.50
2022-08-18T06:49:57.467Z,3.40
2022-08-18T06:52:31.540Z,3.72
2022-08-18T06:55:02.220Z,3.67
2022-08-18T06:57:32.974Z,3.10
2022-08-18T07:00:24.426Z,3.40
2022-08-18T07:02:52.648Z,3.38
2022-08-18T07:05:32.422Z,3.55
2022-08-18T07:08:24.090Z,3.50
2022-08-18T07:10:52.856Z,3.25
2022-08-18T07:13:21.924Z,3.20
2022-08-18T07:15:49.867Z,2.92
2022-08-18T07:18:24.638Z,3.10
2022-08-18T07:21:01.680Z,3.08
2022-08-18T07:23:40.742Z,3.17
2022-08-18T07:26:17.460Z,3.20
2022-08-18T07:28:47.203Z,3.05
2022-08-18T07:31:17.283Z,3.03
2022-08-18T07:33:51.636Z,3.28
2022-08-18T07:36:21.605Z,3.05
2022-08-18T07:39:06.007Z,3.58
2022-08-18T07:41:44.557Z,2.70
2022-08-18T07:44:16.466Z,2.75
2022-08-18T07:46:51.099Z,3.05
2022-08-18T07:49:24.780Z,3.05
2022-08-18T07:52:36.534Z,3.13
2022-08-18T07:55:28.045Z,3.25
2022-08-18T07:58:00.606Z,3.03
2022-08-18T08:04:03.568Z,3.17
2022-08-18T08:06:37.333Z,2.95
2022-08-18T08:09:23.259Z,3.35
2022-08-18T08:12:42.199Z,3.40
2022-08-18T08:15:27.559Z,3.35
2022-08-18T08:18:00.021Z,3.45
2022-08-18T08:20:48.964Z,3.28
2022-08-18T08:23:44.506Z,3.20
2022-08-18T08:26:44.961Z,3.30
2022-08-18T08:29:28.216Z,3.17
2022-08-18T08:32:11.288Z,3.22
2022-08-18T08:34:49.140Z,2.90
2022-08-18T08:37:24.261Z,3.50
2022-08-18T08:40:13.173Z,3.00
2022-08-18T08:42:50.877Z,2.75
2022-08-18T08:48:24.664Z,2.75
2022-08-18T08:51:01.953Z,2.78
2022-08-18T08:53:39.859Z,2.78
2022-08-18T08:56:16.790Z,2.80
2022-08-18T08:58:49.778Z,2.40
2022-08-18T09:01:34.793Z,2.53
2022-08-18T09:04:10.115Z,2.50
2022-08-18T09:06:55.266Z,2.50
2022-08-18T09:09:41.166Z,2.35
2022-08-18T09:12:20.480Z,2.28
2022-08-18T09:15:05.450Z,2.00
2022-08-18T09:17:50.841Z,2.33
2022-08-18T09:20:40.214Z,2.13
2022-08-18T09:23:18.166Z,2.50
2022-08-18T09:25:49.989Z,2.70
2022-08-18T09:28:27.867Z,2.08
2022-08-18T09:31:19.376Z,4.03
2022-08-18T09:34:12.758Z,5.25
2022-08-18T09:36:48.270Z,4.35
2022-08-18T09:39:58.767Z,4.80
2022-08-18T09:42:56.757Z,5.57
2022-08-18T09:48:33.934Z,3.72
2022-08-18T09:50:38.109Z,5.13
2022-08-18T09:51:17.468Z,3.38
2022-08-18T09:53:47.512Z,2.70
2022-08-18T09:56:19.633Z,2.53
2022-08-18T09:59:03.055Z,2.28
2022-08-18T10:01:40.208Z,2.05
2022-08-18T10:04:48.725Z,1.90
2022-08-18T10:11:01.173Z,1.85
2022-08-18T10:14:12.258Z,1.70
2022-08-18T10:17:21.842Z,1.60
2022-08-18T10:20:23.890Z,1.80
2022-08-18T10:22:55.408Z,1.52
2022-08-18T10:25:33.720Z,1.52
2022-08-18T10:28:05.435Z,1.90
2022-08-18T10:30:36.356Z,1.80
2022-08-18T10:33:58.645Z,1.67
2022-08-18T10:36:37.456Z,1.60
2022-08-18T10:39:10.250Z,1.65
2022-08-18T10:41:41.484Z,1.30
2022-08-18T10:44:28.233Z,1.38
2022-08-18T10:46:58.278Z,1.40
2022-08-18T10:49:28.511Z,1.67
2022-08-18T10:52:20.923Z,1.40
2022-08-18T10:55:48.599Z,1.60
2022-08-18T10:58:42.165Z,1.40
2022-08-18T11:01:14.660Z,1.35
2022-08-18T11:04:14.124Z,1.63
2022-08-18T11:06:47.390Z,1.52
2022-08-18T11:09:31.309Z,1.60
2022-08-18T11:12:02.129Z,1.83
2022-08-18T11:14:42.480Z,1.60
2022-08-18T11:19:46.815Z,1.80
2022-08-18T11:22:32.599Z,1.55
2022-08-18T11:25:03.070Z,1.90
2022-08-18T11:27:35.757Z,1.67
2022-08-18T11:30:06.356Z,1.83
2022-08-18T11:32:39.743Z,1.50
2022-08-18T11:35:20.560Z,1.73
2022-08-18T11:37:55.111Z,1.33
2022-08-18T11:46:37.142Z,1.80
2022-08-18T11:49:34.106Z,1.50
2022-08-18T11:52:06.617Z,1.50
2022-08-18T11:54:50.340Z,1.80
2022-08-18T11:57:46.373Z,1.48
2022-08-18T12:00:42.476Z,1.70
2022-08-18T12:03:51.287Z,1.70
2022-08-18T12:06:26.985Z,1.70
2022-08-18T12:09:02.256Z,2.10
2022-08-18T12:11:36.777Z,1.80
2022-08-18T12:14:32.590Z,1.67
2022-08-18T12:17:02.153Z,1.50
2022-08-18T12:19:30.915Z,1.55
2022-08-18T12:22:00.570Z,1.63
2022-08-18T12:24:36.778Z,1.38
2022-08-18T12:27:20.693Z,1.42
2022-08-18T12:29:49.459Z,1.70
2022-08-18T12:32:18.011Z,1.50
2022-08-18T12:35:09.255Z,1.60
2022-08-18T12:40:25.047Z,1.38
2022-08-18T12:45:41.432Z,1.30
2022-08-18T12:48:09.233Z,1.30
2022-08-18T12:50:49.897Z,1.35
2022-08-18T12:53:29.011Z,1.40
2022-08-18T12:56:06.586Z,1.67
2022-08-18T12:58:36.291Z,1.85
2022-08-18T13:01:03.963Z,1.77
2022-08-18T13:03:35.290Z,1.73
2022-08-18T13:06:03.712Z,1.58
2022-08-18T13:08:33.683Z,1.90
2022-08-18T13:11:20.810Z,1.60
2022-08-18T13:13:52.919Z,1.60
2022-08-18T13:16:38.966Z,1.58
2022-08-18T13:19:11.106Z,1.70
2022-08-18T13:21:41.649Z,1.70
2022-08-18T13:24:12.593Z,1.80
2022-08-18T13:26:43.263Z,1.50
2022-08-18T13:29:14.054Z,1.90
2022-08-18T13:31:40.915Z,1.95
2022-08-18T13:34:20.587Z,1.58
2022-08-18T13:36:48.275Z,2.08
2022-08-18T13:39:17.391Z,4.40
2022-08-18T13:41:46.197Z,5.47
2022-08-18T13:46:48.063Z,4.85
2022-08-18T13:49:30.458Z,4.50
2022-08-18T13:52:01.032Z,4.60
2022-08-18T13:54:36.065Z,4.38
2022-08-18T13:57:03.520Z,3.85
2022-08-18T13:59:33.204Z,3.25
2022-08-18T14:02:03.395Z,3.25
2022-08-18T14:04:30.015Z,2.38
2022-08-18T14:07:03.051Z,2.35
2022-08-18T14:09:37.625Z,2.42
2022-08-18T14:12:15.921Z,2.58
2022-08-18T14:14:49.282Z,2.20
2022-08-18T14:17:19.625Z,1.90
2022-08-18T14:23:01.116Z,1.80
2022-08-18T14:25:54.340Z,1.67
2022-08-18T14:28:28.880Z,1.73
2022-08-18T14:30:58.550Z,1.80
2022-08-18T14:33:34.553Z,1.65
2022-08-18T14:36:16.338Z,1.85
2022-08-18T14:38:44.773Z,1.75
2022-08-18T14:41:13.264Z,1.73
2022-08-18T14:44:00.447Z,2.00
2022-08-18T14:46:30.032Z,1.90
2022-08-18T14:51:42.578Z,1.80
2022-08-18T14:54:10.598Z,1.80
2022-08-18T14:56:44.573Z,1.92
2022-08-18T14:59:11.586Z,1.70
2022-08-18T15:01:42.397Z,1.73
2022-08-18T15:04:18.979Z,1.75
2022-08-18T15:06:56.120Z,1.90
2022-08-18T15:09:27.690Z,1.63
2022-08-18T15:11:56.795Z,1.50
2022-08-18T15:14:33.189Z,1.80
2022-08-18T15:17:13.174Z,1.40
2022-08-18T15:20:00.691Z,1.60
2022-08-18T15:22:45.389Z,1.88
2022-08-18T15:25:33.568Z,1.85
2022-08-18T15:28:01.014Z,1.70
2022-08-18T15:30:27.953Z,2.03
2022-08-18T15:32:54.607Z,1.58
2022-08-18T15:35:21.210Z,1.75
2022-08-18T15:37:51.298Z,1.60
2022-08-18T15:40:30.526Z,1.80
2022-08-18T15:43:01.829Z,1.98
2022-08-18T15:45:56.156Z,1.80
2022-08-18T15:48:26.536Z,1.60
2022-08-18T15:50:53.467Z,1.40
2022-08-18T15:53:29.605Z,1.45
2022-08-18T15:55:57.580Z,1.63
2022-08-18T15:58:26.659Z,1.90
2022-08-18T16:00:53.981Z,1.65
2022-08-18T16:03:21.515Z,1.63
2022-08-18T16:05:53.815Z,1.80
2022-08-18T16:08:23.567Z,1.77
2022-08-18T16:10:51.387Z,1.90
2022-08-18T16:13:19.218Z,1.40
2022-08-18T16:15:48.206Z,1.70
2022-08-18T16:18:17.181Z,1.80
2022-08-18T16:20:44.634Z,2.00
2022-08-18T16:23:12.432Z,1.90
2022-08-18T16:25:43.199Z,1.75
2022-08-18T16:28:13.200Z,1.90
2022-08-18T16:30:40.543Z,1.63
2022-08-18T16:33:07.438Z,1.73
2022-08-18T16:35:34.888Z,1.88
2022-08-18T16:38:05.385Z,1.70
2022-08-18T16:40:32.363Z,1.65
2022-08-18T16:43:00.579Z,1.80
2022-08-18T16:48:14.244Z,2.13
2022-08-18T16:50:45.411Z,1.90
2022-08-18T16:53:11.957Z,1.85
2022-08-18T16:55:38.804Z,1.70
2022-08-18T16:58:24.455Z,1.63
2022-08-18T17:01:11.603Z,1.60
2022-08-18T17:04:03.796Z,1.77
2022-08-18T17:06:47.490Z,2.08
2022-08-18T17:09:15.388Z,1.55
2022-08-18T17:11:51.595Z,1.88
2022-08-18T17:14:23.219Z,1.83
2022-08-18T17:16:54.382Z,1.70
2022-08-18T17:19:23.751Z,1.50
2022-08-18T17:21:50.659Z,1.67
2022-08-18T17:24:18.602Z,1.33
2022-08-18T17:26:52.299Z,1.60
2022-08-18T17:29:22.274Z,1.63
2022-08-18T17:31:58.852Z,1.95
2022-08-18T17:34:42.967Z,1.70
2022-08-18T17:37:13.288Z,1.70
2022-08-18T17:40:13.401Z,1.50
2022-08-18T17:42:40.640Z,1.77
2022-08-18T17:45:11.773Z,1.80
2022-08-18T17:47:54.251Z,1.90
2022-08-18T17:51:04.820Z,1.55
2022-08-18T17:53:32.931Z,1.60
2022-08-18T17:56:24.993Z,1.45
2022-08-18T17:59:45.277Z,1.52
2022-08-18T18:02:18.328Z,1.85
2022-08-18T18:04:58.336Z,1.88
2022-08-18T18:07:35.631Z,1.90
2022-08-18T18:12:34.745Z,1.70
2022-08-18T18:15:03.931Z,1.70
2022-08-18T18:17:34.153Z,1.83
2022-08-18T18:20:39.420Z,1.90
2022-08-18T18:23:24.794Z,1.95
2022-08-18T18:25:51.368Z,1.58
2022-08-18T18:28:33.346Z,1.95
2022-08-18T18:31:26.846Z,1.85
2022-08-18T18:34:23.552Z,1.95
2022-08-18T18:36:56.245Z,1.95
2022-08-18T18:39:35.421Z,1.58
2022-08-18T18:42:15.616Z,1.90
2022-08-18T18:47:33.638Z,1.65
2022-08-18T18:50:08.980Z,1.73
2022-08-18T18:52:46.220Z,1.98
2022-08-18T18:55:18.152Z,1.88
2022-08-18T18:58:32.026Z,1.95
2022-08-18T19:01:03.000Z,1.77
2022-08-18T19:03:44.244Z,1.73
2022-08-18T19:06:29.388Z,2.00
2022-08-18T19:09:01.901Z,2.33
2022-08-18T19:12:05.910Z,1.70
2022-08-18T19:14:37.957Z,2.05
2022-08-18T19:17:10.088Z,1.75
2022-08-18T19:19:46.567Z,2.08
2022-08-18T19:22:54.589Z,1.88
2022-08-18T19:25:26.552Z,1.63
2022-08-18T19:28:02.598Z,2.30
2022-08-18T19:30:30.170Z,1.95
2022-08-18T19:33:00.698Z,2.17
2022-08-18T19:35:58.662Z,2.47
2022-08-18T19:38:47.165Z,2.20
2022-08-18T19:41:30.312Z,2.17
2022-08-18T19:44:19.232Z,2.20
2022-08-18T19:46:51.002Z,2.67
2022-08-18T19:49:26.523Z,2.17
2022-08-18T19:51:59.692Z,2.30
2022-08-18T19:54:44.212Z,2.35
2022-08-18T19:57:26.562Z,2.50
2022-08-18T20:00:12.690Z,1.88
2022-08-18T20:03:04.329Z,2.40
2022-08-18T20:06:14.226Z,2.65
2022-08-18T20:09:14.568Z,2.58
2022-08-18T20:12:16.196Z,2.30
2022-08-18T20:14:43.634Z,2.20
2022-08-18T20:17:10.441Z,2.15
2022-08-18T20:19:50.019Z,2.15
2022-08-18T20:22:24.451Z,1.73
2022-08-18T20:25:13.196Z,1.98
2022-08-18T20:30:20.162Z,2.05
2022-08-18T20:33:07.782Z,2.10
2022-08-18T20:36:02.421Z,1.95
2022-08-18T20:38:48.674Z,1.92
2022-08-18T20:41:26.454Z,2.35
2022-08-18T20:44:28.887Z,2.13
2022-08-18T20:47:14.349Z,1.90
2022-08-18T20:50:02.592Z,2.00
2022-08-18T20:53:00.533Z,2.00
2022-08-18T20:55:42.351Z,2.03
2022-08-18T20:58:19.367Z,1.77
2022-08-18T21:00:51.171Z,1.80
2022-08-18T21:03:23.244Z,1.70
2022-08-18T21:05:57.141Z,2.00
2022-08-18T21:08:31.193Z,1.63
2022-08-18T21:11:02.914Z,1.92
2022-08-18T21:13:52.934Z,1.63
2022-08-18T21:19:28.619Z,1.50
2022-08-18T21:22:01.490Z,1.55
2022-08-18T21:24:31.936Z,1.60
2022-08-18T21:27:02.756Z,1.90
2022-08-18T21:29:38.263Z,1.65
2022-08-18T21:32:28.506Z,1.90
2022-08-18T21:34:55.522Z,1.80
2022-08-18T21:37:22.079Z,1.80
2022-08-18T21:45:23.211Z,2.05
2022-08-18T21:47:58.792Z,1.77
2022-08-18T21:50:28.551Z,1.60
2022-08-18T21:52:58.350Z,1.80
2022-08-18T21:55:46.187Z,1.50
2022-08-18T21:58:18.397Z,1.98
2022-08-18T22:01:06.950Z,1.70
2022-08-18T22:03:35.823Z,1.92
2022-08-18T22:06:16.021Z,1.70
2022-08-18T22:12:01.014Z,2.00
2022-08-18T22:14:53.785Z,1.80
2022-08-18T22:17:33.095Z,1.67
2022-08-18T22:20:40.375Z,1.70
2022-08-18T22:23:31.417Z,2.10
2022-08-18T22:26:10.355Z,1.70
2022-08-18T22:28:46.579Z,1.90
2022-08-18T22:31:19.278Z,1.83
2022-08-18T22:36:39.820Z,2.10
2022-08-18T22:39:08.762Z,1.83
2022-08-18T22:41:35.735Z,1.98
2022-08-18T22:44:05.572Z,2.10
2022-08-18T22:46:33.641Z,1.70
2022-08-18T22:51:41.091Z,1.95
2022-08-18T22:54:09.916Z,1.73
2022-08-18T22:56:38.447Z,2.05
2022-08-18T22:59:15.815Z,2.10
2022-08-18T23:01:45.308Z,1.92
2022-08-18T23:04:20.441Z,2.20
2022-08-18T23:06:51.973Z,1.90
2022-08-18T23:09:24.918Z,1.67
2022-08-18T23:11:53.761Z,2.00
2022-08-18T23:14:20.932Z,2.17
2022-08-18T23:22:21.837Z,1.98
2022-08-18T23:27:28.919Z,2.00
2022-08-18T23:29:55.469Z,1.95
2022-08-18T23:32:22.021Z,1.73
2022-08-18T23:35:04.922Z,2.05
2022-08-18T23:37:31.667Z,2.20
2022-08-18T23:39:58.525Z,1.70
2022-08-18T23:42:25.304Z,2.00
2022-08-18T23:44:51.812Z,1.90
2022-08-18T23:47:20.725Z,2.20
2022-08-18T23:49:47.445Z,2.20
2022-08-18T23:52:17.858Z,2.10
2022-08-18T23:54:44.364Z,1.90
2022-08-18T23:57:11.010Z,2.10
2022-08-18T23:59:37.646Z,2.00
